Time;durP1;ratioP1;P1;durP2;ratioP2;P2;SDS_P1;SDS_P2;PMS_P1;PMS_P2;Temp;Humidity;BMP_temperature;BMP_pressure;BME280_temperature;BME280_humidity;BME280_pressure;Samples;Min_cycle;Max_cycle;Signal;HPM_P1;HPM_P2
2022/05/17 00:01:22;;;;;;;7.67;5.15;;;;;;;13.69;35.26;99667.86;1833973;77;21867;-67
2022/05/17 00:03:49;;;;;;;11.18;6.10;;;;;;;13.74;35.33;99669.80;1830372;77;21463;-68
2022/05/17 00:06:15;;;;;;;12.68;6.03;;;;;;;13.69;36.12;99666.55;1829571;77;21459;-68
2022/05/17 00:08:43;;;;;;;10.95;5.97;;;;;;;13.62;36.09;99666.52;1822574;77;21603;-69
2022/05/17 00:11:10;;;;;;;10.48;6.25;;;;;;;13.54;36.04;99666.95;1816350;77;21632;-68
2022/05/17 00:13:37;;;;;;;12.07;6.93;;;;;;;13.53;35.80;99663.91;1740907;80;21890;-68
2022/05/17 00:16:05;;;;;;;18.10;8.58;;;;;;;13.53;36.05;99657.30;1769645;79;21612;-68
2022/05/17 00:18:33;;;;;;;;;;;;;;;13.55;35.71;99661.19;1763995;79;21502;-68
2022/05/17 00:21:00;;;;;;;22.58;10.28;;;;;;;13.54;35.09;99653.74;1768863;79;20428;-68
2022/05/17 00:23:27;;;;;;;17.30;9.30;;;;;;;13.59;35.05;99652.16;1768214;80;21433;-68
2022/05/17 00:25:53;;;;;;;24.05;10.40;;;;;;;13.63;34.87;99652.36;1771400;80;22162;-67
2022/05/17 00:28:21;;;;;;;17.10;9.98;;;;;;;13.76;34.78;99656.50;1769723;79;21537;-68
2022/05/17 00:30:49;;;;;;;;;;;;;;;13.77;35.33;99648.97;1766618;79;21462;-67
2022/05/17 00:33:15;;;;;;;23.52;11.45;;;;;;;13.75;34.62;99652.14;1763101;79;20429;-69
2022/05/17 00:35:45;;;;;;;23.35;10.50;;;;;;;13.64;34.66;99647.48;1768635;79;21554;-68
2022/05/17 00:38:14;;;;;;;21.68;10.10;;;;;;;13.68;34.60;99647.68;1743026;79;21824;-68
2022/05/17 00:40:40;;;;;;;;;;;;;;;13.63;34.80;99653.20;1792436;78;21651;-68
2022/05/17 00:43:08;;;;;;;23.57;10.08;;;;;;;13.68;35.09;99655.61;1810859;78;20522;-68
2022/05/17 00:45:36;;;;;;;;;;;;;;;13.47;35.58;99653.69;1805369;78;21427;-67
2022/05/17 00:48:05;;;;;;;15.90;8.25;;;;;;;13.29;36.17;99652.84;1800610;78;20199;-68
2022/05/17 00:50:42;;;;;;;16.37;6.97;;;;;;;13.08;36.72;99661.45;1778733;80;21458;-68
2022/05/17 00:53:21;;;;;;;14.03;7.20;;;;;;;12.88;37.38;99657.68;1778438;80;21412;-68
2022/05/17 00:55:53;;;;;;;13.38;6.75;;;;;;;12.71;37.79;99660.72;1802045;78;21510;-68
2022/05/17 00:58:26;;;;;;;11.03;5.33;;;;;;;12.67;37.87;99653.90;1803801;78;21048;-67
2022/05/17 01:01:02;;;;;;;7.95;5.05;;;;;;;12.46;38.39;99652.73;1809855;78;21493;-68
2022/05/17 01:03:49;;;;;;;9.05;4.95;;;;;;;12.45;38.45;99652.37;1793280;78;21514;-68
2022/05/17 01:06:17;;;;;;;8.65;3.87;;;;;;;12.38;38.63;99653.59;1792944;79;21404;-69
2022/05/17 01:08:43;;;;;;;6.95;3.90;;;;;;;12.26;38.97;99647.60;1796995;78;21490;-68
2022/05/17 01:11:10;;;;;;;9.10;4.45;;;;;;;12.11;39.13;99636.50;1790212;78;21580;-67
2022/05/17 01:16:25;;;;;;;7.85;4.37;;;;;;;12.14;39.16;99629.78;1791263;78;21991;-67
2022/05/17 01:18:52;;;;;;;;;;;;;;;12.09;39.07;99629.98;1799948;78;21533;-67
2022/05/17 01:21:18;;;;;;;8.88;3.98;;;;;;;12.07;39.28;99631.41;1806015;78;20425;-67
2022/05/17 01:23:45;;;;;;;4.12;3.35;;;;;;;12.01;39.46;99636.95;1777058;80;20958;-67
2022/05/17 01:26:17;;;;;;;10.55;4.28;;;;;;;11.91;39.57;99630.44;1814506;78;21021;-68
2022/05/17 01:28:45;;;;;;;8.40;3.70;;;;;;;11.93;39.51;99630.38;1778626;78;22123;-67
2022/05/17 01:31:11;;;;;;;6.20;3.37;;;;;;;11.98;39.39;99631.85;1775146;80;21513;-68
2022/05/17 01:33:39;;;;;;;6.53;3.60;;;;;;;12.00;39.38;99635.27;1783178;78;21472;-68
2022/05/17 01:36:09;;;;;;;5.40;3.15;;;;;;;12.03;39.31;99628.50;1801848;78;21549;-68
2022/05/17 01:38:36;;;;;;;4.67;2.83;;;;;;;12.06;39.23;99620.94;1765271;80;20938;-68
2022/05/17 01:41:05;;;;;;;5.55;3.00;;;;;;;12.10;39.32;99624.27;1798534;78;20997;-69
2022/05/17 01:43:32;;;;;;;;;;;;;;;12.14;39.25;99622.72;1793236;78;21114;-69
2022/05/17 01:46:08;;;;;;;3.77;2.50;;;;;;;12.10;39.29;99621.16;1793822;78;20643;-68
2022/05/17 01:48:37;;;;;;;7.33;2.53;;;;;;;12.04;39.12;99621.48;1794589;79;21573;-68
2022/05/17 01:51:06;;;;;;;6.35;2.87;;;;;;;11.97;39.27;99622.23;1794747;78;21565;-68
2022/05/17 01:53:33;;;;;;;4.92;2.62;;;;;;;12.11;39.27;99617.61;1782343;78;21799;-68
2022/05/17 01:56:05;;;;;;;5.10;2.58;;;;;;;12.04;39.32;99618.37;1784469;79;21139;-68
2022/05/17 01:58:32;;;;;;;5.08;2.50;;;;;;;12.11;39.13;99620.69;1791893;79;21648;-67
2022/05/17 02:00:59;;;;;;;4.42;2.77;;;;;;;12.18;39.01;99620.31;1792060;78;21458;-67
2022/05/17 02:03:26;;;;;;;5.05;2.25;;;;;;;12.16;39.00;99616.90;1792226;78;21484;-67
2022/05/17 02:05:53;;;;;;;3.75;2.33;;;;;;;12.20;38.90;99617.60;1792095;79;21486;-67
2022/05/17 02:08:20;;;;;;;5.28;2.33;;;;;;;12.17;39.14;99617.30;1792996;79;21493;-68
2022/05/17 02:10:47;;;;;;;4.15;2.10;;;;;;;12.13;39.24;99618.83;1797369;79;21419;-68
2022/05/17 02:13:16;;;;;;;5.75;2.52;;;;;;;12.15;39.26;99613.02;1783318;78;21416;-68
2022/05/17 02:15:45;;;;;;;3.12;2.00;;;;;;;12.07;39.34;99613.40;1770290;78;21425;-68
2022/05/17 02:18:11;;;;;;;2.80;2.00;;;;;;;12.12;39.32;99614.50;1789188;79;21927;-67
2022/05/17 02:20:38;;;;;;;3.70;1.67;;;;;;;12.08;39.43;99621.23;1794602;79;21391;-68
2022/05/17 02:23:07;;;;;;;4.70;1.87;;;;;;;12.15;39.68;99603.79;1784346;78;21556;-68
2022/05/17 02:25:35;;;;;;;3.80;1.77;;;;;;;12.10;39.59;99613.73;1797229;79;21660;-69
2022/05/17 02:28:06;;;;;;;6.70;1.95;;;;;;;12.08;39.63;99613.80;1793836;78;21632;-68
2022/05/17 02:30:34;;;;;;;3.47;2.00;;;;;;;12.02;39.79;99610.16;1768223;79;21957;-68
2022/05/17 02:33:03;;;;;;;2.08;1.82;;;;;;;12.06;40.02;99612.55;1787991;78;21561;-68
2022/05/17 02:35:29;;;;;;;2.83;1.35;;;;;;;12.02;40.04;99611.48;1795471;78;21410;-68
2022/05/17 02:37:56;;;;;;;7.75;1.87;;;;;;;12.05;39.97;99610.86;1785461;78;21466;-68
2022/05/17 02:40:23;;;;;;;2.95;1.77;;;;;;;11.96;40.11;99620.53;1783417;78;20985;-68
2022/05/17 02:42:50;;;;;;;3.75;1.45;;;;;;;11.97;40.35;99614.80;1760871;80;21618;-68
2022/05/17 02:45:17;;;;;;;2.67;1.47;;;;;;;12.04;40.33;99617.05;1787294;79;21462;-69
2022/05/17 02:47:43;;;;;;;4.00;1.57;;;;;;;12.05;40.26;99617.45;1781048;79;21416;-71
2022/05/17 02:50:12;;;;;;;5.42;1.52;;;;;;;12.12;40.15;99616.67;1776953;79;21557;-70
2022/05/17 02:52:39;;;;;;;5.80;1.80;;;;;;;12.00;40.49;99614.66;1771866;80;21041;-69
2022/05/17 02:55:07;;;;;;;2.47;1.40;;;;;;;12.01;40.66;99619.83;1797275;78;21849;-69
2022/05/17 02:57:36;;;;;;;8.90;1.95;;;;;;;11.98;40.74;99618.68;1800232;78;21691;-68
2022/05/17 03:00:07;;;;;;;3.80;1.80;;;;;;;12.02;40.89;99614.95;1801057;78;21593;-68
2022/05/17 03:02:35;;;;;;;6.03;1.52;;;;;;;12.00;40.88;99615.97;1772740;79;21494;-68
2022/05/17 03:05:01;;;;;;;2.50;1.50;;;;;;;12.03;40.90;99611.84;1784372;78;21606;-68
2022/05/17 03:07:28;;;;;;;1.80;1.20;;;;;;;11.96;41.25;99610.00;1765023;80;22115;-67
2022/05/17 03:09:57;;;;;;;4.67;1.20;;;;;;;11.93;41.15;99604.87;1788926;78;20969;-68
2022/05/17 03:12:24;;;;;;;2.10;1.60;;;;;;;12.07;41.12;99606.38;1786961;78;21507;-68
2022/05/17 03:14:50;;;;;;;3.55;1.50;;;;;;;12.16;41.20;99604.19;1791043;78;21581;-67
2022/05/17 03:17:17;;;;;;;3.95;1.32;;;;;;;12.24;41.19;99609.48;1782818;78;21502;-67
2022/05/17 03:19:44;;;;;;;3.40;1.33;;;;;;;12.26;41.28;99602.79;1763205;80;21773;-68
2022/05/17 03:22:11;;;;;;;3.58;1.10;;;;;;;12.20;41.46;99603.11;1778945;79;21780;-68
2022/05/17 03:24:38;;;;;;;6.67;1.60;;;;;;;12.42;41.62;99604.20;1776613;78;21562;-68
2022/05/17 03:27:07;;;;;;;5.58;1.12;;;;;;;12.43;41.61;99603.25;1797182;78;21561;-67
2022/05/17 03:29:34;;;;;;;4.60;1.27;;;;;;;12.62;41.67;99594.80;1765640;80;21509;-67
2022/05/17 03:32:01;;;;;;;2.70;1.20;;;;;;;12.72;41.61;99590.36;1785010;79;22096;-67
2022/05/17 03:34:28;;;;;;;6.17;1.25;;;;;;;12.82;41.58;99588.94;1776454;79;21028;-68
2022/05/17 03:36:56;;;;;;;3.85;1.30;;;;;;;12.88;41.49;99580.69;1785540;79;21715;-68
2022/05/17 03:39:23;;;;;;;1.82;1.20;;;;;;;12.84;41.30;99578.67;1781441;79;20985;-69
2022/05/17 03:41:50;;;;;;;2.90;1.00;;;;;;;13.10;40.79;99582.19;1776936;79;21427;-68
2022/05/17 03:44:17;;;;;;;5.62;1.30;;;;;;;13.35;39.91;99596.24;1767583;80;21766;-68
2022/05/17 03:46:44;;;;;;;4.23;1.40;;;;;;;13.20;40.39;99596.13;1763348;79;21498;-68
2022/05/17 03:49:12;;;;;;;1.30;1.20;;;;;;;13.07;40.50;99599.02;1769433;79;20985;-68
2022/05/17 03:51:39;;;;;;;5.00;1.17;;;;;;;13.15;40.34;99603.44;1769721;79;21498;-68
2022/05/17 03:54:08;;;;;;;3.00;1.25;;;;;;;13.19;40.46;99594.41;1765331;79;21496;-68
2022/05/17 03:56:36;;;;;;;2.47;1.10;;;;;;;13.38;40.19;99598.25;1760006;79;20912;-68
2022/05/17 03:59:03;;;;;;;5.55;1.30;;;;;;;13.42;40.22;99594.97;1749474;79;21563;-68
2022/05/17 04:01:30;;;;;;;2.20;1.10;;;;;;;13.47;40.18;99598.22;1771285;80;21597;-68
2022/05/17 04:03:57;;;;;;;5.22;1.40;;;;;;;13.49;40.42;99600.30;1761075;79;21546;-68
2022/05/17 04:06:25;;;;;;;2.58;1.07;;;;;;;13.83;39.67;99582.55;1757889;79;20952;-69
2022/05/17 04:08:52;;;;;;;1.20;1.00;;;;;;;14.01;39.60;99588.11;1770072;79;22207;-68
2022/05/17 04:11:18;;;;;;;4.87;1.33;;;;;;;14.17;39.14;99585.41;1772001;79;21535;-68
2022/05/17 04:13:45;;;;;;;6.55;1.67;;;;;;;14.29;39.31;99588.27;1762549;79;21596;-69
2022/05/17 04:16:12;;;;;;;2.98;1.20;;;;;;;14.31;39.41;99589.87;1767218;80;21544;-66
2022/05/17 04:18:39;;;;;;;4.33;1.17;;;;;;;14.27;39.36;99587.52;1760177;79;21428;-67
2022/05/17 04:21:06;;;;;;;5.12;1.25;;;;;;;14.43;39.23;99586.12;1768792;79;22122;-68
2022/05/17 04:25:22;;;;;;;4.37;1.50;;;;;;;13.67;41.94;99589.64;1793252;78;23428;-66
2022/05/17 04:27:49;;;;;;;3.15;1.00;;;;;;;14.66;39.09;99582.99;1729873;80;21529;-67
2022/05/17 04:30:17;;;;;;;6.60;1.32;;;;;;;14.81;38.71;99580.37;1726059;81;21937;-67
2022/05/17 04:32:47;;;;;;;4.78;1.32;;;;;;;14.45;39.52;99573.20;1708736;81;21132;-69
2022/05/17 04:35:15;;;;;;;2.10;1.10;;;;;;;14.48;39.80;99570.36;1710088;83;21530;-69
2022/05/17 04:37:42;;;;;;;1.25;0.88;;;;;;;14.63;39.76;99575.23;1694659;81;21500;-69
2022/05/17 04:40:11;;;;;;;6.25;1.10;;;;;;;14.75;39.66;99566.55;1709064;82;21499;-69
2022/05/17 04:42:39;;;;;;;3.20;1.10;;;;;;;14.82;39.47;99567.02;1705989;82;21846;-69
2022/05/17 04:45:08;;;;;;;2.17;1.10;;;;;;;14.94;39.22;99572.89;1699647;82;21594;-71
2022/05/17 04:47:36;;;;;;;1.42;1.00;;;;;;;15.08;39.03;99574.66;1698030;82;21551;-69
2022/05/17 04:50:03;;;;;;;;;;;;;;;15.05;38.83;99578.84;1657088;82;21567;-68
2022/05/17 04:52:30;;;;;;;6.33;1.10;;;;;;;15.43;38.26;99579.55;1702297;82;20472;-69
2022/05/17 04:54:56;;;;;;;4.10;0.93;;;;;;;15.47;37.87;99573.58;1698952;82;21831;-68
2022/05/17 04:57:23;;;;;;;2.50;1.47;;;;;;;15.24;38.08;99577.22;1705160;82;21573;-68
2022/05/17 04:59:50;;;;;;;3.77;1.00;;;;;;;15.22;38.22;99580.44;1698800;82;21558;-69
2022/05/17 05:02:16;;;;;;;5.35;1.65;;;;;;;15.34;37.71;99574.83;1702800;82;21037;-70
2022/05/17 05:04:43;;;;;;;3.60;0.85;;;;;;;15.32;37.79;99566.97;1699004;82;21065;-69
2022/05/17 05:07:10;;;;;;;2.80;1.00;;;;;;;15.43;38.12;99563.65;1697554;82;21998;-69
2022/05/17 05:09:36;;;;;;;2.95;1.17;;;;;;;15.55;38.28;99572.59;1699283;82;21633;-67
2022/05/17 05:12:05;;;;;;;2.95;0.90;;;;;;;15.74;37.92;99565.17;1711110;82;21641;-67
2022/05/17 05:14:33;;;;;;;1.15;0.70;;;;;;;15.97;37.81;99557.50;1694315;82;21442;-67
2022/05/17 05:17:00;;;;;;;5.65;1.45;;;;;;;16.19;37.28;99560.06;1697054;82;21042;-68
2022/05/17 05:19:27;;;;;;;2.27;1.12;;;;;;;16.24;36.10;99555.30;1712465;82;21871;-67
2022/05/17 05:21:54;;;;;;;2.52;0.82;;;;;;;16.30;35.83;99555.72;1699372;81;21578;-68
2022/05/17 05:24:23;;;;;;;8.13;1.32;;;;;;;16.52;35.70;99554.27;1692802;82;21544;-68
2022/05/17 05:26:50;;;;;;;3.15;1.27;;;;;;;16.48;35.24;99549.65;1683091;84;21605;-68
2022/05/17 05:29:17;;;;;;;2.73;0.70;;;;;;;16.70;34.67;99552.97;1694087;82;21415;-68
2022/05/17 05:31:44;;;;;;;1.62;1.07;;;;;;;16.88;34.73;99550.87;1726070;81;21790;-68
2022/05/17 05:34:10;;;;;;;1.72;0.78;;;;;;;17.09;35.33;99549.83;1674907;82;21515;-71
2022/05/17 05:36:37;;;;;;;2.75;0.80;;;;;;;17.18;34.69;99551.45;1717201;80;21520;-70
2022/05/17 05:39:04;;;;;;;1.67;1.07;;;;;;;17.42;34.51;99552.36;1690168;84;21566;-64
2022/05/17 05:41:32;;;;;;;7.35;0.82;;;;;;;17.52;34.26;99548.55;1715810;81;21420;-65
2022/05/17 05:43:59;;;;;;;2.75;0.60;;;;;;;17.66;34.27;99544.37;1691008;82;21903;-65
2022/05/17 05:46:27;;;;;;;8.23;1.22;;;;;;;17.73;34.21;99544.78;1680912;84;21562;-66
2022/05/17 05:48:54;;;;;;;4.12;1.12;;;;;;;17.68;33.46;99546.93;1679270;84;21172;-59
2022/05/17 05:51:21;;;;;;;4.45;1.20;;;;;;;17.79;34.41;99552.79;1688180;82;21485;-59
2022/05/17 05:53:49;;;;;;;5.75;0.80;;;;;;;17.85;34.20;99555.86;1693652;84;21462;-62
2022/05/17 05:56:15;;;;;;;1.70;1.30;;;;;;;17.71;33.73;99554.20;1686682;82;21699;-63
2022/05/17 05:58:42;;;;;;;9.53;1.10;;;;;;;17.69;34.11;99554.80;1713216;80;21558;-63
2022/05/17 06:01:09;;;;;;;4.37;0.88;;;;;;;17.83;33.87;99545.78;1731259;80;21547;-63
2022/05/17 06:03:36;;;;;;;1.65;0.90;;;;;;;18.22;34.03;99553.10;1729495;80;21456;-59
2022/05/17 06:06:03;;;;;;;2.00;0.90;;;;;;;18.43;33.51;99543.11;1718686;80;21548;-58
2022/05/17 06:08:32;;;;;;;3.12;0.93;;;;;;;18.68;33.48;99549.57;1687974;82;21459;-60
2022/05/17 06:11:01;;;;;;;4.62;0.70;;;;;;;18.77;32.75;99553.31;1722009;80;21539;-60
2022/05/17 06:13:30;;;;;;;1.37;1.00;;;;;;;18.84;32.79;99546.57;1733892;80;21006;-61
2022/05/17 06:15:57;;;;;;;2.63;1.23;;;;;;;18.79;32.95;99545.20;1730621;81;21136;-60
2022/05/17 06:18:23;;;;;;;2.50;0.93;;;;;;;18.98;33.01;99553.95;1728176;80;21467;-63
2022/05/17 06:20:54;;;;;;;1.90;1.07;;;;;;;19.07;31.89;99546.56;1727884;80;21891;-61
2022/05/17 06:23:21;;;;;;;2.15;0.80;;;;;;;19.23;32.83;99539.51;1718563;81;21581;-60
2022/05/17 06:25:49;;;;;;;12.28;1.35;;;;;;;19.31;32.53;99538.42;1698947;83;21540;-62
2022/05/17 06:28:16;;;;;;;3.77;1.07;;;;;;;19.13;31.74;99542.56;1693835;83;21464;-61
2022/05/17 06:30:44;;;;;;;3.42;0.93;;;;;;;19.20;31.13;99537.95;1692735;82;21561;-64
2022/05/17 06:33:14;;;;;;;1.52;0.85;;;;;;;19.41;31.30;99536.69;1694472;83;23196;-61
2022/05/17 06:35:43;;;;;;;1.85;0.70;;;;;;;19.59;30.61;99520.16;1699299;82;21592;-60
2022/05/17 06:38:10;;;;;;;5.20;0.90;;;;;;;19.72;30.50;99526.23;1702146;82;21498;-59
2022/05/17 06:40:38;;;;;;;4.33;0.80;;;;;;;19.91;30.96;99528.67;1694776;82;21454;-62
2022/05/17 06:43:06;;;;;;;5.80;1.12;;;;;;;20.02;30.01;99529.95;1728639;80;21014;-62
2022/05/17 06:45:33;;;;;;;1.72;0.82;;;;;;;20.11;29.84;99523.01;1731623;80;21801;-61
2022/05/17 06:48:01;;;;;;;1.70;0.90;;;;;;;19.75;29.24;99526.45;1729847;80;21558;-61
2022/05/17 06:50:29;;;;;;;2.52;1.05;;;;;;;20.13;29.09;99522.39;1742068;80;21446;-61
2022/05/17 06:52:55;;;;;;;3.35;0.98;;;;;;;20.17;29.06;99524.69;1729859;80;21049;-61
2022/05/17 06:55:22;;;;;;;2.02;1.00;;;;;;;20.12;29.24;99522.88;1723853;80;21527;-61
2022/05/17 06:57:51;;;;;;;1.55;1.10;;;;;;;20.23;28.84;99517.48;1728823;82;21882;-61
2022/05/17 07:00:19;;;;;;;2.90;1.00;;;;;;;20.26;28.35;99515.03;1739331;80;21432;-61
2022/05/17 07:02:47;;;;;;;;;;;;;;;20.28;27.65;99506.89;1692940;83;21471;-61
2022/05/17 07:05:13;;;;;;;2.17;1.20;;;;;;;20.41;27.45;99498.19;1671048;84;20431;-61
2022/05/17 07:07:40;;;;;;;1.60;1.05;;;;;;;20.44;27.58;99500.61;1684945;83;21563;-61
2022/05/17 07:13:08;;;;;;;1.17;0.85;;;;;;;20.69;27.71;99493.16;1688005;83;21527;-62
2022/05/17 07:15:42;;;;;;;3.10;0.90;;;;;;;20.72;27.38;99495.08;1680518;82;21535;-60
2022/05/17 07:18:10;;;;;;;2.35;0.70;;;;;;;20.78;27.55;99483.84;1693432;82;21125;-60
2022/05/17 07:20:37;;;;;;;2.65;0.70;;;;;;;20.94;27.56;99487.33;1682562;82;21614;-61
2022/05/17 07:23:05;;;;;;;0.62;0.50;;;;;;;20.72;26.76;99485.73;1689383;82;21815;-61
2022/05/17 07:25:33;;;;;;;0.55;0.40;;;;;;;20.86;27.09;99490.34;1699034;81;21692;-61
2022/05/17 07:28:00;;;;;;;;;;;;;;;20.99;27.55;99482.93;1693279;83;21515;-61
2022/05/17 07:30:27;;;;;;;4.08;0.65;;;;;;;21.09;26.62;99477.61;1690363;82;20449;-61
2022/05/17 07:32:55;;;;;;;2.72;0.70;;;;;;;21.19;26.80;99477.13;1687444;82;21523;-62
2022/05/17 07:35:22;;;;;;;1.27;0.70;;;;;;;21.27;26.73;99469.28;1694307;82;21833;-60
2022/05/17 07:37:49;;;;;;;1.55;0.80;;;;;;;21.35;26.69;99476.10;1683790;82;21492;-61
2022/05/17 07:40:17;;;;;;;3.00;0.50;;;;;;;21.46;26.78;99466.31;1685396;82;21503;-63
2022/05/17 07:42:44;;;;;;;4.80;0.70;;;;;;;21.51;26.76;99466.25;1677118;82;21613;-62
2022/05/17 07:45:11;;;;;;;1.27;0.77;;;;;;;21.33;25.86;99463.37;1688681;83;21514;-60
2022/05/17 07:47:38;;;;;;;1.27;0.53;;;;;;;21.24;25.94;99470.88;1685819;82;21852;-61
2022/05/17 07:50:07;;;;;;;1.75;0.37;;;;;;;21.37;26.59;99467.45;1690440;82;21551;-60
2022/05/17 07:52:34;;;;;;;1.42;0.60;;;;;;;21.54;26.57;99460.59;1690500;82;21582;-61
2022/05/17 07:55:01;;;;;;;2.60;0.57;;;;;;;21.54;25.95;99472.63;1678942;84;21106;-60
2022/05/17 07:57:29;;;;;;;2.52;0.65;;;;;;;21.49;25.90;99463.33;1685275;82;21518;-61
2022/05/17 07:59:56;;;;;;;2.17;0.60;;;;;;;21.67;26.14;99459.48;1695210;82;21400;-60
2022/05/17 08:02:22;;;;;;;0.93;0.47;;;;;;;21.71;25.51;99460.37;1683256;82;21532;-60
2022/05/17 08:04:50;;;;;;;8.05;0.70;;;;;;;21.55;25.30;99456.95;1684248;83;28561;-59
2022/05/17 08:07:17;;;;;;;2.40;0.60;;;;;;;21.37;25.35;99446.05;1687087;82;21456;-61
2022/05/17 08:09:46;;;;;;;2.05;0.65;;;;;;;21.50;25.45;99443.64;1695411;82;21484;-61
2022/05/17 08:12:14;;;;;;;1.70;0.50;;;;;;;21.56;25.27;99443.91;1681760;83;21787;-61
2022/05/17 08:14:44;;;;;;;6.45;1.40;;;;;;;21.69;26.08;99449.48;1685675;82;20967;-60
2022/05/17 08:17:10;;;;;;;1.07;0.50;;;;;;;21.72;26.29;99441.18;1678151;82;21503;-63
2022/05/17 08:19:38;;;;;;;1.32;0.40;;;;;;;21.87;26.20;99438.41;1696030;82;21589;-61
2022/05/17 08:22:10;;;;;;;1.65;0.40;;;;;;;21.69;25.65;99436.94;1682149;82;21633;-62
2022/05/17 08:27:31;;;;;;;1.85;0.40;;;;;;;21.36;25.46;99438.16;1678873;82;21613;-63
2022/05/17 08:30:00;;;;;;;1.00;0.40;;;;;;;21.48;25.07;99427.73;1685495;82;21453;-63
2022/05/17 08:35:12;;;;;;;4.83;0.47;;;;;;;21.95;25.38;99410.42;1678308;84;21602;-63
2022/05/17 08:37:40;;;;;;;;;;;;;;;21.35;24.38;99418.61;1692177;82;21857;-62
2022/05/17 08:40:11;;;;;;;3.08;0.90;;;;;;;21.44;25.47;99403.59;1691908;82;20503;-61
2022/05/17 08:43:12;;;;;;;2.17;0.45;;;;;;;21.56;25.21;99411.81;1656982;84;21034;-62
2022/05/17 08:45:50;;;;;;;3.80;0.70;;;;;;;21.89;25.87;99410.17;1684630;84;21591;-62
2022/05/17 08:48:17;;;;;;;2.85;0.68;;;;;;;22.12;26.07;99416.86;1689255;82;21633;-62
2022/05/17 08:50:44;;;;;;;6.90;0.53;;;;;;;21.91;24.82;99414.89;1677955;82;21930;-61
2022/05/17 08:53:16;;;;;;;1.80;0.42;;;;;;;21.69;25.43;99406.17;1689843;82;25117;-62
2022/05/17 08:55:43;;;;;;;2.65;0.57;;;;;;;22.05;24.96;99400.19;1685997;83;21618;-62
2022/05/17 08:58:23;;;;;;;3.35;0.65;;;;;;;21.92;24.74;99380.42;1695373;82;21669;-65
2022/05/17 09:00:55;;;;;;;4.50;0.70;;;;;;;21.81;24.89;99398.82;1688457;82;21685;-61
2022/05/17 09:04:00;;;;;;;1.07;0.50;;;;;;;21.77;25.28;99406.32;1689532;82;21551;-61
2022/05/17 09:06:47;;;;;;;3.08;0.60;;;;;;;21.62;24.77;99396.19;1689750;82;20963;-61
2022/05/17 09:09:27;;;;;;;3.70;0.50;;;;;;;21.59;25.15;99381.27;1681437;84;21467;-62
2022/05/17 09:11:59;;;;;;;;;;;;;;;21.76;25.52;99388.56;1681159;82;21519;-61
2022/05/17 09:14:30;;;;;;;1.40;0.42;;;;;;;22.09;25.01;99379.66;1686621;82;20152;-62
2022/05/17 09:17:10;;;;;;;2.70;0.70;;;;;;;22.19;25.00;99385.48;1686117;83;21751;-63
2022/05/17 09:19:37;;;;;;;1.40;0.70;;;;;;;22.14;24.51;99374.72;1691006;83;21617;-61
2022/05/17 09:22:06;;;;;;;2.87;0.80;;;;;;;21.85;24.71;99381.52;1680711;82;21555;-61
2022/05/17 09:24:40;;;;;;;5.12;0.70;;;;;;;21.71;24.65;99380.62;1691045;82;21539;-64
2022/05/17 09:27:10;;;;;;;15.93;0.90;;;;;;;21.51;24.57;99364.61;1685423;82;21563;-63
2022/05/17 09:29:44;;;;;;;4.97;1.00;;;;;;;21.56;24.52;99372.19;1687001;82;22215;-63
2022/05/17 09:32:12;;;;;;;11.33;3.60;;;;;;;21.82;24.44;99364.91;1732166;80;21593;-64
2022/05/17 09:34:45;;;;;;;17.70;5.03;;;;;;;21.81;24.49;99350.66;1724522;80;21532;-63
2022/05/17 09:37:19;;;;;;;10.72;1.45;;;;;;;21.93;24.25;99357.54;1695209;82;21541;-64
2022/05/17 09:39:52;;;;;;;4.87;0.80;;;;;;;21.74;24.70;99350.91;1724408;80;21419;-60
2022/05/17 09:42:27;;;;;;;6.70;0.70;;;;;;;21.52;24.44;99341.38;1740444;80;21825;-60
2022/05/17 09:44:56;;;;;;;6.42;0.80;;;;;;;21.51;25.01;99353.04;1731991;80;21543;-58
2022/05/17 09:47:37;;;;;;;1.92;1.00;;;;;;;21.30;25.01;99359.36;1688122;82;21507;-60
2022/05/17 09:53:07;;;;;;;3.90;0.50;;;;;;;21.48;25.10;99348.83;1698750;82;21010;-61
2022/05/17 09:55:34;;;;;;;1.82;0.60;;;;;;;21.67;25.55;99346.62;1733477;80;21913;-60
2022/05/17 09:58:11;;;;;;;6.05;0.70;;;;;;;21.44;25.21;99343.89;1738656;80;21514;-62
2022/05/17 10:00:51;;;;;;;4.47;0.85;;;;;;;21.46;25.35;99349.47;1749807;80;21502;-59
2022/05/17 10:03:36;;;;;;;3.77;0.80;;;;;;;21.23;25.01;99344.02;1698763;82;21493;-60
2022/05/17 10:06:16;;;;;;;2.45;1.35;;;;;;;21.44;25.48;99339.88;1695494;82;21542;-60
2022/05/17 10:09:02;;;;;;;3.27;0.75;;;;;;;21.63;25.26;99335.86;1731746;79;21740;-60
2022/05/17 10:12:06;;;;;;;4.53;0.72;;;;;;;21.86;24.91;99339.53;1735127;80;21888;-60
2022/05/17 10:14:43;;;;;;;4.28;0.80;;;;;;;22.02;24.87;99321.51;1725562;80;21542;-62
2022/05/17 10:17:35;;;;;;;0.95;0.82;;;;;;;21.92;25.35;99325.06;1697675;82;21605;-62
2022/05/17 10:20:10;;;;;;;5.60;1.25;;;;;;;21.78;25.15;99326.38;1692452;83;21606;-61
2022/05/17 10:23:04;;;;;;;6.40;0.88;;;;;;;21.75;24.43;99312.45;1703616;81;22114;-61
2022/05/17 10:25:50;;;;;;;6.83;0.90;;;;;;;21.67;24.58;99313.17;1740922;81;21629;-59
2022/05/17 10:28:34;;;;;;;3.45;0.90;;;;;;;21.65;24.44;99308.47;1738746;81;21556;-60
2022/05/17 10:31:33;;;;;;;3.72;0.90;;;;;;;21.86;25.27;99304.24;1732500;81;21499;-60
2022/05/17 10:34:51;;;;;;;4.67;1.17;;;;;;;21.86;26.04;99298.89;1742644;81;21490;-60
2022/05/17 10:37:24;;;;;;;5.83;0.80;;;;;;;21.95;24.92;99289.15;1734550;81;21534;-60
2022/05/17 10:40:11;;;;;;;3.12;1.00;;;;;;;22.10;24.88;99297.03;1738754;81;21425;-61
2022/05/17 10:42:38;;;;;;;3.85;0.80;;;;;;;22.18;24.47;99287.43;1738480;81;21581;-61
2022/05/17 10:45:07;;;;;;;3.47;1.00;;;;;;;22.08;24.80;99278.95;1736204;81;21560;-59
2022/05/17 10:48:03;;;;;;;5.10;1.80;;;;;;;22.43;25.25;99265.81;1700421;81;21439;-61
2022/05/17 10:50:39;;;;;;;4.03;0.75;;;;;;;22.66;24.56;99278.27;1657365;84;21983;-64
2022/05/17 10:53:50;;;;;;;3.12;0.90;;;;;;;22.50;24.55;99269.58;1711218;81;21584;-62
2022/05/17 10:56:50;;;;;;;5.20;1.10;;;;;;;22.70;25.43;99272.47;1731128;81;21521;-63
2022/05/17 10:59:31;;;;;;;3.80;0.90;;;;;;;22.83;24.30;99276.11;1699216;83;21529;-61
2022/05/17 11:02:17;;;;;;;4.37;1.02;;;;;;;23.08;24.55;99277.70;1734075;81;21427;-62
2022/05/17 11:05:08;;;;;;;4.28;0.85;;;;;;;23.21;23.46;99274.11;1734834;81;21878;-61
2022/05/17 11:08:04;;;;;;;6.62;1.60;;;;;;;23.20;23.53;99270.24;1743174;81;21514;-62
2022/05/17 11:10:51;;;;;;;7.20;1.30;;;;;;;22.99;23.66;99274.56;1726240;81;21472;-63
2022/05/17 11:13:27;;;;;;;4.30;1.10;;;;;;;22.85;24.04;99262.06;1739941;81;21472;-62
2022/05/17 11:16:12;;;;;;;7.55;1.10;;;;;;;22.58;24.60;99262.95;1696805;83;21527;-62
2022/05/17 11:19:00;;;;;;;5.62;1.75;;;;;;;22.64;24.22;99244.09;1693744;82;21937;-61
2022/05/17 11:21:37;;;;;;;7.37;0.95;;;;;;;22.44;23.96;99260.81;1659650;84;27632;-63
2022/05/17 11:24:19;;;;;;;;;;;;;;;22.38;24.68;99276.99;1678977;84;21558;-65
2022/05/17 11:27:18;;;;;;;7.53;1.67;;;;;;;22.70;25.33;99258.23;1677261;84;20456;-62
2022/05/17 11:30:14;;;;;;;5.35;1.22;;;;;;;22.78;24.52;99242.73;1676793;84;21487;-62
2022/05/17 11:33:02;;;;;;;8.60;1.47;;;;;;;23.01;25.19;99240.41;1673116;84;21912;-62
2022/05/17 11:35:35;;;;;;;9.00;1.20;;;;;;;22.48;24.25;99250.97;1669552;84;21577;-61
2022/05/17 11:38:01;;;;;;;7.25;0.85;;;;;;;22.45;24.20;99243.26;1675075;84;21065;-62
2022/05/17 11:40:52;;;;;;;4.53;0.85;;;;;;;22.35;24.63;99255.85;1632655;84;21487;-62
2022/05/17 11:43:54;;;;;;;6.65;1.00;;;;;;;22.52;24.64;99244.81;1688764;83;21526;-62
2022/05/17 11:46:35;;;;;;;10.60;1.35;;;;;;;22.53;25.58;99237.97;1669485;84;22283;-62
2022/05/17 11:49:30;;;;;;;3.02;0.80;;;;;;;22.90;24.78;99220.87;1672024;84;21531;-63
2022/05/17 11:52:03;;;;;;;10.08;0.80;;;;;;;23.13;24.37;99223.95;1688999;84;21542;-63
2022/05/17 11:54:44;;;;;;;3.42;1.12;;;;;;;23.02;23.94;99218.81;1670821;84;21463;-63
2022/05/17 11:57:23;;;;;;;11.83;1.00;;;;;;;23.01;25.10;99219.79;1680206;84;20999;-63
2022/05/17 12:00:04;;;;;;;3.20;0.90;;;;;;;22.90;24.30;99220.87;1685703;84;21984;-62
2022/05/17 12:02:58;;;;;;;8.75;1.10;;;;;;;22.58;24.22;99218.75;1684333;84;21416;-61
2022/05/17 12:05:47;;;;;;;6.37;1.07;;;;;;;22.50;24.76;99218.17;1728865;81;21669;-61
2022/05/17 12:08:44;;;;;;;5.87;0.90;;;;;;;22.67;23.93;99209.80;1712384;82;21582;-62
2022/05/17 12:11:30;;;;;;;7.03;1.05;;;;;;;22.89;24.20;99205.80;1725631;82;21562;-62